Time;durP1;ratioP1;P1;durP2;ratioP2;P2;SDS_P1;SDS_P2;PMS_P1;PMS_P2;Temp;Humidity;BMP_temperature;BMP_pressure;BME280_temperature;BME280_humidity;BME280_pressure;Samples;Min_cycle;Max_cycle;Signal;HPM_P1;HPM_P2
2021/07/15 00:01:20;;;;;;;;;;;22.10;48.50;;;;;;8331592;28;19917;-53
2021/07/15 00:05:20;;;;;;;;;;;22.10;48.50;;;;;;8295953;28;19944;-50
2021/07/15 00:09:21;;;;;;;;;;;22.10;48.50;;;;;;8317179;28;19925;-51
2021/07/15 00:13:21;;;;;;;;;;;22.10;48.60;;;;;;8326618;28;19917;-51
2021/07/15 00:17:22;;;;;;;;;;;22.10;48.60;;;;;;8327090;28;20397;-54
2021/07/15 00:21:24;;;;;;;;;;;22.10;48.60;;;;;;8331479;28;20430;-53
2021/07/15 00:25:24;;;;;;;;;;;22.10;48.60;;;;;;8325639;28;19951;-52
2021/07/15 00:29:25;;;;;;;;;;;22.00;48.60;;;;;;8326612;28;19926;-53
2021/07/15 00:33:28;;;;;;;;;;;22.00;48.60;;;;;;8326625;28;20375;-54
2021/07/15 00:37:29;;;;;;;;;;;22.00;48.60;;;;;;8330787;28;19921;-54
2021/07/15 00:41:29;;;;;;;;;;;22.00;48.70;;;;;;8327437;28;19971;-53
2021/07/15 00:45:30;;;;;;;;;;;22.00;48.70;;;;;;8326707;28;19917;-54
2021/07/15 00:49:31;;;;;;;;;;;22.00;48.70;;;;;;8325963;28;19925;-53
2021/07/15 00:53:31;;;;;;;;;;;22.00;48.70;;;;;;8326300;28;19913;-51
2021/07/15 00:57:32;;;;;;;;;;;22.00;48.80;;;;;;8331014;28;19944;-52
2021/07/15 01:01:33;;;;;;;;;;;22.00;48.80;;;;;;8325762;28;19965;-51
2021/07/15 01:05:44;;;;;;;;;;;22.00;48.80;;;;;;8326083;28;19925;-52
2021/07/15 01:09:45;;;;;;;;;;;22.00;48.80;;;;;;8326005;28;19932;-53
2021/07/15 01:13:59;;;;;;;;;;;22.00;48.80;;;;;;8330170;28;19956;-51
2021/07/15 01:18:35;;;;;;;;;;;22.00;48.80;;;;;;8326152;28;19924;-53
2021/07/15 01:22:51;;;;;;;;;;;22.00;48.80;;;;;;8219794;28;19917;-53
2021/07/15 01:27:31;;;;;;;;;;;22.00;48.80;;;;;;8312208;28;20326;-52
2021/07/15 01:31:33;;;;;;;;;;;22.00;48.90;;;;;;8195568;28;19933;-52
2021/07/15 01:35:41;;;;;;;;;;;22.00;48.90;;;;;;8251203;28;19921;-51
2021/07/15 01:39:44;;;;;;;;;;;22.00;48.90;;;;;;8336700;28;20344;-53
2021/07/15 01:43:45;;;;;;;;;;;22.00;48.90;;;;;;8331418;28;19917;-53
2021/07/15 01:47:46;;;;;;;;;;;22.00;48.90;;;;;;8331714;28;19921;-53
2021/07/15 01:51:47;;;;;;;;;;;21.90;48.90;;;;;;8331404;28;19928;-52
2021/07/15 01:55:48;;;;;;;;;;;21.90;48.90;;;;;;8334207;28;19924;-52
2021/07/15 01:59:49;;;;;;;;;;;21.90;48.90;;;;;;8333835;28;20388;-51
2021/07/15 02:03:51;;;;;;;;;;;21.90;48.90;;;;;;8331368;28;19944;-51
2021/07/15 02:07:52;;;;;;;;;;;21.90;48.90;;;;;;8331140;28;19921;-50
2021/07/15 02:11:54;;;;;;;;;;;21.90;48.90;;;;;;8330959;28;19940;-50
2021/07/15 02:15:56;;;;;;;;;;;21.90;48.90;;;;;;8335297;28;19918;-53
2021/07/15 02:19:57;;;;;;;;;;;21.90;49.00;;;;;;8330346;28;20007;-50
2021/07/15 02:23:58;;;;;;;;;;;21.90;49.00;;;;;;8330832;28;19921;-51
2021/07/15 02:27:59;;;;;;;;;;;21.90;49.00;;;;;;8330440;28;19945;-51
2021/07/15 02:32:01;;;;;;;;;;;21.90;49.00;;;;;;8334469;28;19948;-50
2021/07/15 02:36:03;;;;;;;;;;;21.90;49.00;;;;;;8330143;28;19955;-53
2021/07/15 02:40:06;;;;;;;;;;;21.90;49.00;;;;;;8330136;28;20263;-53
2021/07/15 02:44:06;;;;;;;;;;;21.90;49.00;;;;;;8328548;28;19921;-53
2021/07/15 02:48:07;;;;;;;;;;;21.90;49.00;;;;;;8330058;28;19919;-53
2021/07/15 02:52:08;;;;;;;;;;;21.90;49.00;;;;;;8334272;28;20468;-50
2021/07/15 02:56:15;;;;;;;;;;;21.90;49.00;;;;;;8329377;28;20291;-51
2021/07/15 03:00:16;;;;;;;;;;;21.90;49.00;;;;;;8329502;28;19913;-53
2021/07/15 03:04:22;;;;;;;;;;;21.90;49.10;;;;;;8329087;28;19917;-52
2021/07/15 03:08:25;;;;;;;;;;;21.90;49.10;;;;;;8333986;28;19975;-53
2021/07/15 03:12:26;;;;;;;;;;;21.90;49.10;;;;;;8329225;28;19960;-54
2021/07/15 03:16:27;;;;;;;;;;;21.90;49.10;;;;;;8328532;28;19913;-52
2021/07/15 03:20:32;;;;;;;;;;;21.90;49.10;;;;;;8328814;28;19993;-51
2021/07/15 03:24:36;;;;;;;;;;;21.80;49.10;;;;;;8328984;28;19921;-52
2021/07/15 03:28:37;;;;;;;;;;;21.90;49.20;;;;;;8332498;28;19917;-51
2021/07/15 03:32:38;;;;;;;;;;;21.80;49.10;;;;;;8328351;28;19947;-52
2021/07/15 03:36:41;;;;;;;;;;;21.80;49.10;;;;;;8328440;28;19913;-50
2021/07/15 03:40:42;;;;;;;;;;;21.80;49.10;;;;;;8327963;28;19980;-53
2021/07/15 03:44:43;;;;;;;;;;;21.80;49.20;;;;;;8332703;28;19967;-54
2021/07/15 03:48:44;;;;;;;;;;;21.80;49.10;;;;;;8327899;28;20003;-51
2021/07/15 03:52:47;;;;;;;;;;;21.80;49.20;;;;;;8327307;28;19952;-50
2021/07/15 03:56:47;;;;;;;;;;;21.80;49.20;;;;;;8327900;28;19913;-53
2021/07/15 04:00:49;;;;;;;;;;;21.80;49.20;;;;;;8327757;28;20374;-53
2021/07/15 04:04:52;;;;;;;;;;;21.80;49.20;;;;;;8331775;28;19918;-51
2021/07/15 04:08:53;;;;;;;;;;;21.80;49.20;;;;;;8327770;28;20436;-53
2021/07/15 04:12:55;;;;;;;;;;;21.80;49.20;;;;;;8327481;28;20024;-52
2021/07/15 04:17:05;;;;;;;;;;;21.80;49.20;;;;;;8326823;28;19917;-53
2021/07/15 04:21:06;;;;;;;;;;;21.80;49.20;;;;;;8331754;28;20358;-51
2021/07/15 04:25:09;;;;;;;;;;;21.80;49.30;;;;;;8327082;28;19928;-51
2021/07/15 04:29:09;;;;;;;;;;;21.80;49.30;;;;;;8308702;28;19924;-52
2021/07/15 04:33:10;;;;;;;;;;;21.80;49.30;;;;;;8327018;28;19917;-51
2021/07/15 04:37:11;;;;;;;;;;;21.80;49.30;;;;;;8326270;28;19956;-51
2021/07/15 04:41:12;;;;;;;;;;;21.80;49.30;;;;;;8331289;28;19913;-53
2021/07/15 04:45:14;;;;;;;;;;;21.80;49.30;;;;;;8326748;28;19971;-53
2021/07/15 04:49:14;;;;;;;;;;;21.80;49.30;;;;;;8326256;28;19925;-53
2021/07/15 04:53:16;;;;;;;;;;;21.80;49.30;;;;;;8326339;28;19925;-55
2021/07/15 04:57:17;;;;;;;;;;;21.80;49.30;;;;;;8331068;28;19923;-53
2021/07/15 05:01:17;;;;;;;;;;;21.70;49.30;;;;;;8325681;28;19918;-53
2021/07/15 05:05:18;;;;;;;;;;;21.80;49.40;;;;;;8326981;28;19971;-53
2021/07/15 05:09:18;;;;;;;;;;;21.80;49.40;;;;;;8332835;28;19977;-52
2021/07/15 05:13:18;;;;;;;;;;;21.70;49.40;;;;;;8336605;28;19920;-52
2021/07/15 05:17:19;;;;;;;;;;;21.80;49.40;;;;;;8332466;28;19917;-53
2021/07/15 05:21:19;;;;;;;;;;;21.80;49.40;;;;;;8332107;28;19924;-52
2021/07/15 05:25:20;;;;;;;;;;;21.80;49.40;;;;;;8331808;28;19932;-54
2021/07/15 05:29:20;;;;;;;;;;;21.70;49.40;;;;;;8332117;28;19921;-52
2021/07/15 05:33:21;;;;;;;;;;;21.80;49.50;;;;;;8336830;28;19922;-53
2021/07/15 05:37:21;;;;;;;;;;;21.80;49.50;;;;;;8331803;28;19917;-53
2021/07/15 05:41:22;;;;;;;;;;;21.70;49.50;;;;;;8332366;28;19941;-54
2021/07/15 05:45:22;;;;;;;;;;;21.70;49.50;;;;;;8332049;28;20314;-54
2021/07/15 05:49:23;;;;;;;;;;;21.70;49.50;;;;;;8317945;28;19925;-54
2021/07/15 05:53:23;;;;;;;;;;;21.80;49.60;;;;;;8331901;28;19932;-53
2021/07/15 05:57:24;;;;;;;;;;;21.70;49.50;;;;;;8331755;28;19979;-53
2021/07/15 06:01:25;;;;;;;;;;;21.70;49.60;;;;;;8330886;28;19985;-52
2021/07/15 06:05:28;;;;;;;;;;;21.70;49.60;;;;;;8335776;28;19921;-54
2021/07/15 06:09:28;;;;;;;;;;;21.70;49.60;;;;;;8333544;28;20404;-53
2021/07/15 06:13:29;;;;;;;;;;;21.70;49.60;;;;;;8331283;28;19921;-51
2021/07/15 06:17:29;;;;;;;;;;;21.70;49.80;;;;;;8331076;28;19924;-51
2021/07/15 06:21:30;;;;;;;;;;;21.70;49.90;;;;;;8330394;28;19917;-53
2021/07/15 06:25:30;;;;;;;;;;;21.80;49.90;;;;;;8334872;28;19960;-52
2021/07/15 06:29:31;;;;;;;;;;;21.70;49.90;;;;;;8330543;28;20026;-53
2021/07/15 06:33:32;;;;;;;;;;;21.70;49.80;;;;;;8330389;28;19960;-54
2021/07/15 06:37:34;;;;;;;;;;;21.70;49.80;;;;;;8329880;28;19924;-54
2021/07/15 06:41:34;;;;;;;;;;;21.70;49.90;;;;;;8334761;28;19963;-50
2021/07/15 06:45:35;;;;;;;;;;;21.70;49.80;;;;;;8330115;28;19917;-50
2021/07/15 06:49:35;;;;;;;;;;;21.70;49.90;;;;;;8329354;28;19933;-51
2021/07/15 06:53:36;;;;;;;;;;;21.70;49.90;;;;;;8330025;28;19913;-53
2021/07/15 06:57:37;;;;;;;;;;;21.70;49.90;;;;;;8329487;28;19917;-53
2021/07/15 07:01:37;;;;;;;;;;;21.70;50.00;;;;;;8333549;28;20282;-49
2021/07/15 07:05:38;;;;;;;;;;;21.70;50.00;;;;;;8329389;28;19921;-52
2021/07/15 07:09:39;;;;;;;;;;;21.70;50.00;;;;;;8329438;28;19929;-53
2021/07/15 07:13:39;;;;;;;;;;;21.70;50.00;;;;;;8328512;28;19963;-53
2021/07/15 07:17:40;;;;;;;;;;;21.70;50.00;;;;;;8333725;28;20285;-50
2021/07/15 07:21:40;;;;;;;;;;;21.70;50.00;;;;;;8311149;28;19932;-52
2021/07/15 07:25:41;;;;;;;;;;;21.70;50.00;;;;;;8311018;28;19917;-53
2021/07/15 07:29:41;;;;;;;;;;;21.70;50.00;;;;;;8303871;28;19925;-53
2021/07/15 07:33:42;;;;;;;;;;;21.80;50.10;;;;;;8332984;28;19920;-51
2021/07/15 07:37:43;;;;;;;;;;;21.70;50.00;;;;;;8328109;28;20394;-51
2021/07/15 07:41:44;;;;;;;;;;;21.70;50.00;;;;;;8328075;28;19921;-52
2021/07/15 07:45:44;;;;;;;;;;;21.70;50.00;;;;;;8328207;28;20295;-53
2021/07/15 07:49:45;;;;;;;;;;;21.70;50.00;;;;;;8326776;28;20290;-53
2021/07/15 07:53:45;;;;;;;;;;;21.70;50.00;;;;;;8332353;28;20521;-51
2021/07/15 07:57:46;;;;;;;;;;;21.70;50.00;;;;;;8327716;28;19928;-52
2021/07/15 08:01:46;;;;;;;;;;;21.70;50.00;;;;;;8327182;28;19921;-50
2021/07/15 08:05:47;;;;;;;;;;;21.70;50.00;;;;;;8322492;28;19929;-53
2021/07/15 08:09:48;;;;;;;;;;;21.70;50.00;;;;;;8299430;28;20367;-54
2021/07/15 08:13:48;;;;;;;;;;;21.70;50.00;;;;;;8323032;28;19921;-52
2021/07/15 08:17:48;;;;;;;;;;;21.80;50.10;;;;;;8327456;28;20034;-51
2021/07/15 08:21:49;;;;;;;;;;;21.80;50.20;;;;;;8327071;28;19924;-55
2021/07/15 08:25:49;;;;;;;;;;;21.80;50.10;;;;;;8331280;28;19920;-53
2021/07/15 08:29:50;;;;;;;;;;;21.80;50.10;;;;;;8326754;28;20373;-54
2021/07/15 08:33:50;;;;;;;;;;;21.80;50.10;;;;;;8326724;28;19928;-54
2021/07/15 08:37:51;;;;;;;;;;;21.80;50.10;;;;;;8326625;28;20011;-53
2021/07/15 08:41:51;;;;;;;;;;;21.80;50.20;;;;;;8325709;28;19917;-52
2021/07/15 08:45:52;;;;;;;;;;;21.80;50.10;;;;;;8331145;28;19914;-53
2021/07/15 08:49:52;;;;;;;;;;;21.80;50.20;;;;;;8325973;28;19930;-51
2021/07/15 08:53:53;;;;;;;;;;;21.80;50.10;;;;;;8310867;28;20362;-53
2021/07/15 08:57:54;;;;;;;;;;;21.80;50.20;;;;;;8300519;28;19925;-52
2021/07/15 09:01:56;;;;;;;;;;;21.80;50.20;;;;;;8330308;28;20380;-54
2021/07/15 09:05:57;;;;;;;;;;;21.80;50.20;;;;;;8326635;28;20004;-51
2021/07/15 09:09:57;;;;;;;;;;;21.80;50.20;;;;;;8325465;28;20369;-51
2021/07/15 09:13:58;;;;;;;;;;;21.80;50.10;;;;;;8325680;28;20320;-54
2021/07/15 09:17:58;;;;;;;;;;;21.90;50.20;;;;;;8327276;28;20282;-53
2021/07/15 09:22:09;;;;;;;;;;;21.90;50.20;;;;;;8297666;28;19913;-54
2021/07/15 09:26:10;;;;;;;;;;;21.90;50.20;;;;;;8318298;28;19924;-51
2021/07/15 09:30:12;;;;;;;;;;;21.90;50.10;;;;;;8325675;28;20305;-53
2021/07/15 09:34:14;;;;;;;;;;;21.90;50.20;;;;;;8325270;28;19925;-51
2021/07/15 09:38:14;;;;;;;;;;;21.90;50.20;;;;;;8330217;28;19917;-53
2021/07/15 09:42:19;;;;;;;;;;;21.90;50.20;;;;;;8325630;28;19923;-53
2021/07/15 09:46:20;;;;;;;;;;;21.90;50.10;;;;;;8325233;28;19917;-53
2021/07/15 09:50:20;;;;;;;;;;;21.90;50.10;;;;;;8325425;28;19979;-50
2021/07/15 09:54:22;;;;;;;;;;;21.90;50.10;;;;;;8331879;28;19959;-54
2021/07/15 09:58:22;;;;;;;;;;;21.90;50.20;;;;;;8334468;28;19917;-51
2021/07/15 10:02:29;;;;;;;;;;;21.90;50.20;;;;;;8331420;28;20370;-51
2021/07/15 10:06:42;;;;;;;;;;;21.90;50.10;;;;;;8331622;28;20286;-53
2021/07/15 10:10:43;;;;;;;;;;;22.00;50.20;;;;;;8330251;28;19925;-53
2021/07/15 10:14:43;;;;;;;;;;;22.00;50.20;;;;;;8335457;28;19917;-53
2021/07/15 10:18:46;;;;;;;;;;;22.00;50.20;;;;;;8330951;28;20055;-53
2021/07/15 10:22:53;;;;;;;;;;;22.00;50.20;;;;;;8330792;28;19921;-53
2021/07/15 10:26:55;;;;;;;;;;;22.00;50.10;;;;;;8330676;28;19922;-53
2021/07/15 10:30:57;;;;;;;;;;;22.00;50.20;;;;;;8330482;28;20012;-53
2021/07/15 10:34:58;;;;;;;;;;;22.00;50.20;;;;;;8334303;28;20277;-51
2021/07/15 10:38:59;;;;;;;;;;;22.00;50.20;;;;;;8329129;28;19926;-51
2021/07/15 10:43:00;;;;;;;;;;;22.00;50.20;;;;;;8330189;28;19917;-51
2021/07/15 10:47:00;;;;;;;;;;;22.00;50.20;;;;;;8329600;28;19953;-51
2021/07/15 10:51:01;;;;;;;;;;;22.00;50.20;;;;;;8334277;28;19928;-53
2021/07/15 10:55:03;;;;;;;;;;;22.00;50.20;;;;;;8329998;28;19917;-53
2021/07/15 10:59:20;;;;;;;;;;;22.00;50.20;;;;;;8329161;28;19924;-53
2021/07/15 11:03:22;;;;;;;;;;;22.00;50.20;;;;;;8318170;28;20363;-54
2021/07/15 11:07:33;;;;;;;;;;;22.00;50.20;;;;;;8298458;28;19928;-53
2021/07/15 11:11:35;;;;;;;;;;;22.00;50.20;;;;;;8334046;28;20350;-50
2021/07/15 11:16:07;;;;;;;;;;;22.00;50.20;;;;;;8329052;28;19956;-50
2021/07/15 11:20:10;;;;;;;;;;;22.00;50.20;;;;;;8312103;28;19971;-53
2021/07/15 11:24:11;;;;;;;;;;;22.00;50.20;;;;;;8328763;28;20340;-54
2021/07/15 11:28:15;;;;;;;;;;;22.00;50.10;;;;;;8327636;28;19924;-54
2021/07/15 11:32:26;;;;;;;;;;;22.00;50.20;;;;;;8331956;28;19925;-53
2021/07/15 11:36:26;;;;;;;;;;;22.00;50.20;;;;;;8328512;28;19963;-54
2021/07/15 11:40:36;;;;;;;;;;;22.10;50.20;;;;;;8327301;28;19956;-51
2021/07/15 11:44:55;;;;;;;;;;;22.00;50.20;;;;;;8328056;28;20440;-52
2021/07/15 11:49:26;;;;;;;;;;;22.00;50.20;;;;;;8331000;28;20290;-53
2021/07/15 11:53:26;;;;;;;;;;;22.10;50.20;;;;;;8332342;28;20313;-54
2021/07/15 11:57:27;;;;;;;;;;;22.10;50.10;;;;;;8328130;28;19917;-54
2021/07/15 12:01:32;;;;;;;;;;;22.10;50.20;;;;;;8327442;28;19925;-52
2021/07/15 12:05:34;;;;;;;;;;;22.20;50.20;;;;;;8326897;28;19928;-53
2021/07/15 12:09:34;;;;;;;;;;;22.20;50.20;;;;;;8328546;28;19921;-51
2021/07/15 12:13:35;;;;;;;;;;;22.20;50.20;;;;;;8330726;28;19952;-53
2021/07/15 12:17:35;;;;;;;;;;;22.20;50.20;;;;;;8327345;28;19917;-52
2021/07/15 12:21:37;;;;;;;;;;;22.20;50.20;;;;;;8327101;28;19917;-54
2021/07/15 12:25:38;;;;;;;;;;;22.20;50.10;;;;;;8326652;28;19963;-50
2021/07/15 12:29:52;;;;;;;;;;;22.20;50.10;;;;;;8331389;28;19925;-51
2021/07/15 12:33:53;;;;;;;;;;;22.20;50.10;;;;;;8326909;28;19917;-50
2021/07/15 12:37:54;;;;;;;;;;;22.20;50.10;;;;;;8326473;28;19917;-50
2021/07/15 12:41:55;;;;;;;;;;;22.20;50.10;;;;;;8326597;28;19943;-53
2021/07/15 12:46:07;;;;;;;;;;;22.20;50.20;;;;;;8328698;28;20374;-54
2021/07/15 12:50:07;;;;;;;;;;;22.20;50.20;;;;;;8297960;28;19971;-54
2021/07/15 12:54:31;;;;;;;;;;;22.20;50.20;;;;;;8318416;28;19969;-52
2021/07/15 12:58:31;;;;;;;;;;;22.20;50.20;;;;;;8325869;28;19918;-53
2021/07/15 13:02:32;;;;;;;;;;;22.20;50.20;;;;;;8326029;28;19960;-52
2021/07/15 13:06:34;;;;;;;;;;;22.20;50.20;;;;;;8331119;28;19992;-54
2021/07/15 13:14:58;;;;;;;;;;;22.20;50.30;;;;;;8302924;28;19929;-53
2021/07/15 13:19:08;;;;;;;;;;;22.10;50.20;;;;;;8308507;28;20015;-54
2021/07/15 13:23:09;;;;;;;;;;;22.10;50.20;;;;;;8325633;28;19956;-54
2021/07/15 13:27:13;;;;;;;;;;;22.20;50.30;;;;;;8332667;28;19913;-52
2021/07/15 13:31:17;;;;;;;;;;;22.10;50.30;;;;;;8331817;28;19933;-51
2021/07/15 13:35:18;;;;;;;;;;;22.10;50.30;;;;;;8332076;28;19940;-52
2021/07/15 13:39:35;;;;;;;;;;;22.10;50.30;;;;;;8331748;28;20012;-54
2021/07/15 13:43:35;;;;;;;;;;;22.20;50.40;;;;;;8313568;28;19953;-53
2021/07/15 13:47:39;;;;;;;;;;;22.10;50.30;;;;;;8324840;28;19918;-54
2021/07/15 13:51:40;;;;;;;;;;;22.20;50.40;;;;;;8323348;28;19988;-49
2021/07/15 13:55:43;;;;;;;;;;;22.20;50.40;;;;;;8311283;28;20012;-53
2021/07/15 13:59:44;;;;;;;;;;;22.20;50.50;;;;;;8331567;28;19968;-53
2021/07/15 14:03:47;;;;;;;;;;;22.20;50.40;;;;;;8336108;28;20000;-53
2021/07/15 14:07:48;;;;;;;;;;;22.20;50.40;;;;;;8312907;28;20015;-48
2021/07/15 14:11:49;;;;;;;;;;;22.20;50.40;;;;;;8330819;28;20360;-52
2021/07/15 14:15:56;;;;;;;;;;;22.20;50.40;;;;;;8299103;28;20008;-51
2021/07/15 14:19:57;;;;;;;;;;;22.20;50.40;;;;;;8326889;28;20275;-51
2021/07/15 14:23:57;;;;;;;;;;;22.20;50.40;;;;;;8323511;28;19913;-51
2021/07/15 14:27:58;;;;;;;;;;;22.20;50.40;;;;;;8330345;28;19923;-50
2021/07/15 14:31:58;;;;;;;;;;;22.20;50.40;;;;;;8313611;28;20298;-52
2021/07/15 14:35:59;;;;;;;;;;;22.20;50.40;;;;;;8304778;28;19917;-53
2021/07/15 14:39:59;;;;;;;;;;;22.20;50.40;;;;;;8334417;28;19920;-51
2021/07/15 14:44:00;;;;;;;;;;;22.20;50.40;;;;;;8336200;28;19917;-51
2021/07/15 14:48:00;;;;;;;;;;;22.20;50.40;;;;;;8342594;28;19917;-51
2021/07/15 14:52:01;;;;;;;;;;;22.20;50.30;;;;;;8322981;28;19926;-53
2021/07/15 14:56:01;;;;;;;;;;;22.20;50.40;;;;;;8308759;28;19917;-52
2021/07/15 15:00:04;;;;;;;;;;;22.20;50.30;;;;;;8332717;28;19914;-50
2021/07/15 15:04:04;;;;;;;;;;;22.20;50.30;;;;;;8311783;28;20374;-52
2021/07/15 15:08:05;;;;;;;;;;;22.20;50.30;;;;;;8311394;28;19932;-53
2021/07/15 15:12:05;;;;;;;;;;;22.20;50.30;;;;;;8329282;28;19967;-50
2021/07/15 15:16:06;;;;;;;;;;;22.20;50.30;;;;;;8333400;28;20282;-47
2021/07/15 15:20:08;;;;;;;;;;;22.20;50.40;;;;;;8328483;28;20340;-53
2021/07/15 15:24:08;;;;;;;;;;;22.20;50.40;;;;;;8329027;28;19924;-52
2021/07/15 15:28:08;;;;;;;;;;;22.20;50.30;;;;;;8326429;28;19917;-52
2021/07/15 15:32:09;;;;;;;;;;;22.20;50.30;;;;;;8312925;28;19926;-50
2021/07/15 15:36:10;;;;;;;;;;;22.20;50.30;;;;;;8301987;28;19995;-50
2021/07/15 15:40:12;;;;;;;;;;;22.20;50.30;;;;;;8304956;28;19917;-50
2021/07/15 15:44:12;;;;;;;;;;;22.20;50.30;;;;;;8300277;28;19925;-52
2021/07/15 15:48:13;;;;;;;;;;;22.20;50.80;;;;;;8308374;28;19917;-50
2021/07/15 15:52:14;;;;;;;;;;;22.30;50.30;;;;;;8310877;28;19933;-49
2021/07/15 15:56:14;;;;;;;;;;;22.20;50.30;;;;;;8305939;28;19922;-49
2021/07/15 16:00:16;;;;;;;;;;;22.30;50.30;;;;;;8300051;28;19925;-51
2021/07/15 16:04:17;;;;;;;;;;;22.30;50.30;;;;;;8302258;28;20341;-52
2021/07/15 16:08:17;;;;;;;;;;;22.20;50.20;;;;;;8314400;28;19967;-53
2021/07/15 16:12:22;;;;;;;;;;;22.30;50.30;;;;;;8323524;28;19979;-53
2021/07/15 16:16:22;;;;;;;;;;;22.30;50.30;;;;;;8326696;28;19913;-53
2021/07/15 16:20:26;;;;;;;;;;;22.30;50.30;;;;;;8326502;28;19914;-52
2021/07/15 16:24:26;;;;;;;;;;;22.30;50.30;;;;;;8327859;28;19923;-51
2021/07/15 16:28:27;;;;;;;;;;;22.30;50.20;;;;;;8329718;28;19917;-53
2021/07/15 16:32:27;;;;;;;;;;;22.30;50.30;;;;;;8326684;28;19968;-51
2021/07/15 16:36:28;;;;;;;;;;;22.30;50.20;;;;;;8326560;28;19939;-54
2021/07/15 16:40:29;;;;;;;;;;;22.30;50.20;;;;;;8321882;28;19996;-51
2021/07/15 16:44:29;;;;;;;;;;;22.30;50.20;;;;;;8321350;28;20277;-52
2021/07/15 16:48:30;;;;;;;;;;;22.30;50.20;;;;;;8331384;28;19917;-53
2021/07/15 16:52:30;;;;;;;;;;;22.30;50.20;;;;;;8325834;28;19925;-52
2021/07/15 16:56:31;;;;;;;;;;;22.30;50.70;;;;;;8326683;28;19917;-53
2021/07/15 17:00:31;;;;;;;;;;;22.30;50.20;;;;;;8312307;28;20382;-53
2021/07/15 17:04:32;;;;;;;;;;;22.30;50.20;;;;;;8331646;28;19918;-52
2021/07/15 17:08:35;;;;;;;;;;;22.30;50.20;;;;;;8331793;28;19945;-49
2021/07/15 17:12:35;;;;;;;;;;;22.30;50.10;;;;;;8332949;28;19932;-51
2021/07/15 17:16:37;;;;;;;;;;;22.30;50.20;;;;;;8332598;28;19917;-49
2021/07/15 17:20:39;;;;;;;;;;;22.30;50.10;;;;;;8336836;28;19917;-51
2021/07/15 17:24:39;;;;;;;;;;;22.30;50.20;;;;;;8332611;28;19924;-52
2021/07/15 17:28:40;;;;;;;;;;;22.30;50.10;;;;;;8331884;28;19943;-51
2021/07/15 17:32:41;;;;;;;;;;;22.30;50.10;;;;;;8331100;28;19921;-53
2021/07/15 17:36:41;;;;;;;;;;;22.30;50.10;;;;;;8336396;28;20444;-53
2021/07/15 17:40:42;;;;;;;;;;;22.30;50.10;;;;;;8331256;28;19928;-51
2021/07/15 17:44:43;;;;;;;;;;;22.30;50.20;;;;;;8313935;28;19924;-51
2021/07/15 17:48:43;;;;;;;;;;;22.30;50.10;;;;;;8328781;28;19917;-54
2021/07/15 17:52:44;;;;;;;;;;;22.30;50.20;;;;;;8335854;28;19928;-53
2021/07/15 17:56:45;;;;;;;;;;;22.30;50.20;;;;;;8331330;28;20325;-52
2021/07/15 18:00:46;;;;;;;;;;;22.20;50.60;;;;;;8311706;28;19917;-51
2021/07/15 18:04:46;;;;;;;;;;;22.30;50.20;;;;;;8329904;28;19921;-52
2021/07/15 18:08:46;;;;;;;;;;;22.30;50.20;;;;;;8330863;28;19925;-53
2021/07/15 18:12:47;;;;;;;;;;;22.30;50.30;;;;;;8334842;28;19921;-53
2021/07/15 18:16:47;;;;;;;;;;;22.20;50.20;;;;;;8330737;28;19917;-50
2021/07/15 18:20:48;;;;;;;;;;;22.20;50.20;;;;;;8330550;28;19924;-52
2021/07/15 18:24:48;;;;;;;;;;;22.20;50.70;;;;;;8326189;28;19917;-51
2021/07/15 18:28:49;;;;;;;;;;;22.30;50.20;;;;;;8334324;28;19914;-53
2021/07/15 18:32:50;;;;;;;;;;;22.30;50.20;;;;;;8303695;28;20305;-51
2021/07/15 18:36:50;;;;;;;;;;;22.20;50.20;;;;;;8318471;28;19964;-53
2021/07/15 18:40:50;;;;;;;;;;;22.20;50.20;;;;;;8329606;28;20370;-53
2021/07/15 18:44:51;;;;;;;;;;;22.20;50.20;;;;;;8312487;28;21422;-51
2021/07/15 18:48:52;;;;;;;;;;;22.20;50.20;;;;;;8305313;28;19921;-52
2021/07/15 18:52:52;;;;;;;;;;;22.20;50.30;;;;;;8300708;28;19930;-53
2021/07/15 18:56:53;;;;;;;;;;;22.20;50.20;;;;;;8304312;28;19979;-53
2021/07/15 19:00:55;;;;;;;;;;;22.20;50.20;;;;;;8303414;28;19921;-54
2021/07/15 19:04:56;;;;;;;;;;;22.20;50.30;;;;;;8332991;28;20286;-53
2021/07/15 19:08:56;;;;;;;;;;;22.20;50.20;;;;;;8329267;28;19918;-53
2021/07/15 19:12:57;;;;;;;;;;;22.20;50.20;;;;;;8329299;28;19925;-52
2021/07/15 19:16:57;;;;;;;;;;;22.20;50.20;;;;;;8328043;28;19924;-51
2021/07/15 19:20:58;;;;;;;;;;;22.20;50.30;;;;;;8333378;28;19935;-52
2021/07/15 19:24:58;;;;;;;;;;;22.20;50.20;;;;;;8328227;28;20008;-53
2021/07/15 19:28:59;;;;;;;;;;;22.10;50.20;;;;;;8328411;28;20381;-51
2021/07/15 19:32:59;;;;;;;;;;;22.10;50.20;;;;;;8328770;28;20341;-50
2021/07/15 19:37:00;;;;;;;;;;;22.20;50.20;;;;;;8328574;28;19920;-52
2021/07/15 19:41:00;;;;;;;;;;;22.10;50.20;;;;;;8332513;28;19913;-50
2021/07/15 19:45:01;;;;;;;;;;;22.10;50.20;;;;;;8328532;28;20363;-49
2021/07/15 19:49:02;;;;;;;;;;;22.20;50.20;;;;;;8328486;28;20386;-51
2021/07/15 19:53:03;;;;;;;;;;;22.10;50.20;;;;;;8327593;28;19964;-50
2021/07/15 19:57:03;;;;;;;;;;;22.10;50.20;;;;;;8332543;28;19928;-53
2021/07/15 20:01:04;;;;;;;;;;;22.10;50.20;;;;;;8327956;28;20367;-52
2021/07/15 20:05:05;;;;;;;;;;;22.10;50.20;;;;;;8327491;28;19922;-51
2021/07/15 20:09:06;;;;;;;;;;;22.10;50.20;;;;;;8327691;28;20281;-52
2021/07/15 20:13:06;;;;;;;;;;;22.10;50.20;;;;;;8331973;28;19925;-51
2021/07/15 20:17:08;;;;;;;;;;;22.10;50.20;;;;;;8326507;28;26366;-52
2021/07/15 20:21:09;;;;;;;;;;;22.10;50.20;;;;;;8327444;28;19924;-53
2021/07/15 20:25:10;;;;;;;;;;;22.10;50.20;;;;;;8326852;28;19921;-54
2021/07/15 20:29:11;;;;;;;;;;;22.10;50.20;;;;;;8326992;28;19925;-50
2021/07/15 20:33:11;;;;;;;;;;;22.10;50.20;;;;;;8331669;28;19921;-51
2021/07/15 20:37:12;;;;;;;;;;;22.10;50.20;;;;;;8325850;28;19925;-49
2021/07/15 20:41:12;;;;;;;;;;;22.10;50.20;;;;;;8326723;28;19963;-50
2021/07/15 20:45:14;;;;;;;;;;;22.10;50.20;;;;;;8326725;28;19940;-53
2021/07/15 20:49:14;;;;;;;;;;;22.10;50.20;;;;;;8330790;28;19924;-52
2021/07/15 20:53:15;;;;;;;;;;;22.10;50.20;;;;;;8326898;28;19929;-52
2021/07/15 20:57:15;;;;;;;;;;;22.10;50.20;;;;;;8326661;28;19921;-51
2021/07/15 21:01:16;;;;;;;;;;;22.10;50.20;;;;;;8326031;28;19918;-53
2021/07/15 21:05:16;;;;;;;;;;;22.10;50.20;;;;;;8327665;28;19917;-51
2021/07/15 21:09:19;;;;;;;;;;;22.10;50.20;;;;;;8297412;28;19918;-52
2021/07/15 21:13:20;;;;;;;;;;;22.10;50.20;;;;;;8317195;28;19928;-49
2021/07/15 21:17:23;;;;;;;;;;;22.10;50.20;;;;;;8326233;28;20281;-52
2021/07/15 21:21:23;;;;;;;;;;;22.10;50.20;;;;;;8326356;28;19963;-52
2021/07/15 21:25:24;;;;;;;;;;;22.10;50.20;;;;;;8330234;28;19921;-51
2021/07/15 21:29:25;;;;;;;;;;;22.10;50.20;;;;;;8325887;28;19971;-49
2021/07/15 21:33:25;;;;;;;;;;;22.10;50.20;;;;;;8326042;28;19928;-51
2021/07/15 21:37:26;;;;;;;;;;;22.00;50.10;;;;;;8325499;28;20374;-53
2021/07/15 21:41:27;;;;;;;;;;;22.10;50.20;;;;;;8330368;28;19913;-53
2021/07/15 21:45:27;;;;;;;;;;;22.10;50.20;;;;;;8325901;28;19940;-52
2021/07/15 21:49:28;;;;;;;;;;;22.10;50.20;;;;;;8329511;28;19981;-50
2021/07/15 21:53:28;;;;;;;;;;;22.10;50.20;;;;;;8331834;28;19925;-49
2021/07/15 21:57:30;;;;;;;;;;;22.00;50.20;;;;;;8331862;28;19959;-53
2021/07/15 22:01:30;;;;;;;;;;;22.10;50.20;;;;;;8334742;28;19925;-52
2021/07/15 22:05:31;;;;;;;;;;;22.00;50.20;;;;;;8332200;28;19925;-52
2021/07/15 22:09:31;;;;;;;;;;;22.00;50.20;;;;;;8332082;28;19925;-51
2021/07/15 22:13:32;;;;;;;;;;;22.00;50.20;;;;;;8330703;28;19929;-54
2021/07/15 22:17:32;;;;;;;;;;;22.00;50.20;;;;;;8335992;28;19920;-50
2021/07/15 22:21:33;;;;;;;;;;;22.00;50.20;;;;;;8331186;28;19917;-52
2021/07/15 22:25:34;;;;;;;;;;;22.00;50.20;;;;;;8330541;28;19918;-54
2021/07/15 22:29:34;;;;;;;;;;;22.00;50.20;;;;;;8330659;28;19917;-51
2021/07/15 22:33:35;;;;;;;;;;;22.00;50.20;;;;;;8335185;28;19928;-50
2021/07/15 22:37:35;;;;;;;;;;;22.00;50.20;;;;;;8330087;28;20370;-52
2021/07/15 22:41:36;;;;;;;;;;;22.00;50.20;;;;;;8330549;28;19917;-51
2021/07/15 22:45:36;;;;;;;;;;;22.00;50.20;;;;;;8330320;28;19990;-52
2021/07/15 22:49:37;;;;;;;;;;;22.00;50.20;;;;;;8329714;28;19971;-50
2021/07/15 22:53:37;;;;;;;;;;;22.00;50.20;;;;;;8334537;28;20304;-53
2021/07/15 22:57:38;;;;;;;;;;;22.00;50.20;;;;;;8330167;28;19917;-53
2021/07/15 23:01:38;;;;;;;;;;;22.00;50.20;;;;;;8328152;28;20048;-51
2021/07/15 23:05:39;;;;;;;;;;;22.00;50.20;;;;;;8329580;28;19975;-53
2021/07/15 23:09:40;;;;;;;;;;;22.00;50.20;;;;;;8334173;28;20427;-52
2021/07/15 23:13:40;;;;;;;;;;;22.00;50.20;;;;;;8328978;28;19975;-52
2021/07/15 23:17:41;;;;;;;;;;;22.00;50.20;;;;;;8329272;28;19970;-52
2021/07/15 23:21:41;;;;;;;;;;;22.00;50.20;;;;;;8329214;28;20286;-52
2021/07/15 23:25:42;;;;;;;;;;;22.00;50.20;;;;;;8329572;28;20370;-50
2021/07/15 23:29:42;;;;;;;;;;;22.00;50.20;;;;;;8332486;28;19913;-50